createdAt,value
2023-02-11T00:01:07.508Z,11.15
2023-02-11T00:03:35.652Z,10.45
2023-02-11T00:06:05.859Z,14.38
2023-02-11T00:08:33.347Z,10.30
2023-02-11T00:11:00.924Z,14.57
2023-02-11T00:13:28.404Z,11.13
2023-02-11T00:15:55.992Z,10.40
2023-02-11T00:18:23.688Z,8.75
2023-02-11T00:20:51.235Z,8.88
2023-02-11T00:23:18.842Z,6.13
2023-02-11T00:25:46.293Z,7.95
2023-02-11T00:28:13.895Z,7.15
2023-02-11T00:30:41.629Z,12.38
2023-02-11T00:33:09.561Z,9.27
2023-02-11T00:35:38.683Z,8.70
2023-02-11T00:38:08.518Z,9.52
2023-02-11T00:40:36.217Z,10.88
2023-02-11T00:43:04.316Z,12.00
2023-02-11T00:45:32.002Z,9.32
2023-02-11T00:47:59.359Z,14.05
2023-02-11T00:50:28.896Z,18.02
2023-02-11T00:52:56.537Z,13.52
2023-02-11T00:55:24.074Z,17.15
2023-02-11T00:57:51.929Z,17.17
2023-02-11T01:00:19.567Z,17.30
2023-02-11T01:02:47.053Z,20.88
2023-02-11T01:05:14.564Z,27.92
2023-02-11T01:07:42.038Z,25.25
2023-02-11T01:10:09.573Z,25.58
2023-02-11T01:12:37.519Z,31.75
2023-02-11T01:15:05.921Z,35.15
2023-02-11T01:17:35.155Z,38.85
2023-02-11T01:20:07.752Z,41.03
2023-02-11T01:22:39.468Z,33.58
2023-02-11T01:25:08.686Z,39.53
2023-02-11T01:27:37.133Z,40.45
2023-02-11T01:30:06.885Z,39.00
2023-02-11T01:32:35.177Z,31.83
2023-02-11T01:35:02.549Z,29.98
2023-02-11T01:37:30.044Z,29.23
2023-02-11T01:39:58.020Z,25.08
2023-02-11T01:42:25.546Z,27.30
2023-02-11T01:44:54.559Z,32.00
2023-02-11T01:47:22.082Z,29.83
2023-02-11T01:49:55.565Z,27.23
2023-02-11T01:52:31.615Z,29.73
2023-02-11T01:55:21.184Z,27.70
2023-02-11T01:57:56.423Z,27.08
2023-02-11T02:00:29.144Z,29.58
2023-02-11T02:03:11.388Z,28.75
2023-02-11T02:05:42.927Z,28.52
2023-02-11T02:08:25.856Z,31.92
2023-02-11T02:10:56.536Z,28.02
2023-02-11T02:13:25.335Z,32.17
2023-02-11T02:15:56.628Z,26.90
2023-02-11T02:18:42.449Z,22.60
2023-02-11T02:24:15.450Z,22.00
2023-02-11T02:27:14.009Z,18.88
2023-02-11T02:30:14.712Z,23.67
2023-02-11T02:33:24.466Z,20.17
2023-02-11T02:35:57.985Z,24.75
2023-02-11T02:39:04.355Z,18.80
2023-02-11T02:41:35.192Z,24.13
2023-02-11T03:00:03.041Z,21.30
2023-02-11T03:02:42.225Z,25.42
2023-02-11T03:05:56.513Z,20.52
2023-02-11T03:08:32.194Z,23.05
2023-02-11T03:11:01.593Z,23.42
2023-02-11T03:13:33.802Z,26.67
2023-02-11T03:16:09.917Z,26.90
2023-02-11T03:18:42.465Z,25.90
2023-02-11T03:21:11.745Z,27.45
2023-02-11T03:24:02.055Z,31.67
2023-02-11T03:27:04.854Z,31.25
2023-02-11T03:29:35.130Z,29.77
2023-02-11T03:32:22.296Z,31.58
2023-02-11T03:34:55.638Z,32.55
2023-02-11T03:37:33.317Z,28.40
2023-02-11T03:40:09.003Z,31.70
2023-02-11T03:42:44.056Z,31.80
2023-02-11T03:45:16.744Z,32.97
2023-02-11T03:47:50.936Z,37.90
2023-02-11T03:50:21.190Z,33.53
2023-02-11T03:52:49.948Z,38.17
2023-02-11T03:55:19.173Z,36.28
2023-02-11T03:57:47.914Z,31.80
2023-02-11T04:00:16.007Z,27.88
2023-02-11T04:02:44.819Z,24.42
2023-02-11T04:05:15.960Z,25.42
2023-02-11T04:07:43.982Z,21.55
2023-02-11T04:10:12.966Z,23.13
2023-02-11T04:12:41.026Z,17.88
2023-02-11T04:15:12.784Z,16.65
2023-02-11T04:17:40.393Z,20.27
2023-02-11T04:20:13.475Z,19.08
2023-02-11T04:22:40.958Z,15.52
2023-02-11T04:25:09.716Z,11.20
2023-02-11T04:27:38.031Z,13.82
2023-02-11T04:30:07.306Z,21.30
2023-02-11T04:32:34.883Z,17.95
2023-02-11T04:35:03.086Z,24.30
2023-02-11T04:37:30.669Z,20.40
2023-02-11T04:39:58.336Z,19.27
2023-02-11T04:42:25.751Z,20.30
2023-02-11T04:44:53.185Z,22.60
2023-02-11T04:47:20.792Z,23.25
2023-02-11T04:49:48.338Z,20.63
2023-02-11T04:52:16.044Z,23.77
2023-02-11T04:54:43.475Z,22.73
2023-02-11T04:57:11.252Z,18.83
2023-02-11T04:59:39.167Z,26.77
2023-02-11T05:02:06.649Z,26.80
2023-02-11T05:04:34.135Z,23.63
2023-02-11T05:07:01.792Z,25.90
2023-02-11T05:09:29.357Z,24.63
2023-02-11T05:11:56.935Z,24.17
2023-02-11T05:14:24.499Z,23.27
2023-02-11T05:16:52.537Z,21.63
2023-02-11T05:19:19.985Z,22.52
2023-02-11T05:22:01.331Z,21.55
2023-02-11T05:24:29.224Z,20.15
2023-02-11T05:26:56.626Z,14.43
2023-02-11T05:29:24.177Z,14.95
2023-02-11T05:31:51.673Z,14.90
2023-02-11T05:34:19.170Z,13.43
2023-02-11T05:36:47.075Z,14.65
2023-02-11T05:49:04.493Z,18.40
2023-02-11T05:51:32.024Z,14.52
2023-02-11T05:53:59.521Z,13.05
2023-02-11T05:56:26.932Z,14.38
2023-02-11T05:58:54.319Z,14.00
2023-02-11T06:01:21.924Z,15.02
2023-02-11T06:03:51.306Z,16.48
2023-02-11T06:06:18.738Z,15.15
2023-02-11T06:08:46.457Z,14.88
2023-02-11T06:11:17.910Z,14.80
2023-02-11T06:13:45.348Z,11.13
2023-02-11T06:16:12.838Z,19.52
2023-02-11T06:18:40.635Z,16.17
2023-02-11T06:21:10.546Z,19.70
2023-02-11T06:23:38.817Z,16.08
2023-02-11T06:26:08.947Z,12.20
2023-02-11T06:28:38.770Z,18.00
2023-02-11T06:48:30.250Z,20.10
2023-02-11T06:51:02.901Z,16.67
2023-02-11T06:53:30.868Z,18.05
2023-02-11T06:56:14.598Z,19.02
2023-02-11T06:58:42.848Z,16.60
2023-02-11T07:01:14.287Z,15.02
2023-02-11T07:03:43.832Z,16.40
2023-02-11T07:06:14.738Z,16.73
2023-02-11T07:08:43.113Z,17.17
2023-02-11T07:11:16.229Z,16.58
2023-02-11T07:13:44.089Z,22.48
2023-02-11T07:16:14.928Z,18.65
2023-02-11T07:18:42.846Z,21.02
2023-02-11T07:21:12.610Z,27.63
2023-02-11T07:23:41.313Z,22.48
2023-02-11T07:26:11.841Z,30.17
2023-02-11T07:28:40.093Z,25.30
2023-02-11T07:31:16.829Z,24.00
2023-02-11T07:36:17.103Z,28.25
2023-02-11T07:38:46.061Z,32.17
2023-02-11T07:41:17.715Z,24.58
2023-02-11T07:43:46.026Z,29.45
2023-02-11T07:46:19.612Z,28.95
2023-02-11T07:48:47.847Z,35.40
2023-02-11T07:51:16.754Z,33.88
2023-02-11T07:53:46.099Z,35.08
2023-02-11T07:56:15.610Z,36.63
2023-02-11T07:58:43.540Z,40.13
2023-02-11T08:01:15.259Z,47.63
2023-02-11T08:03:43.546Z,44.05
2023-02-11T08:18:36.988Z,43.00
2023-02-11T08:41:02.638Z,32.28
2023-02-11T08:43:30.154Z,34.85
2023-02-11T08:45:59.516Z,27.98
2023-02-11T08:48:29.226Z,39.05
2023-02-11T08:50:57.785Z,39.88
2023-02-11T08:53:26.723Z,30.65
2023-02-11T08:55:55.654Z,28.23
2023-02-11T08:58:24.376Z,30.83
2023-02-11T09:00:52.172Z,32.25
2023-02-11T09:03:20.006Z,27.73
2023-02-11T09:05:50.224Z,27.63
2023-02-11T09:08:17.901Z,29.05
2023-02-11T09:10:45.736Z,30.08
2023-02-11T09:13:13.298Z,29.52
2023-02-11T09:15:41.089Z,33.45
2023-02-11T09:18:08.714Z,29.00
2023-02-11T09:20:36.258Z,30.65
2023-02-11T09:23:04.550Z,30.55
2023-02-11T09:25:32.330Z,33.53
2023-02-11T09:27:59.781Z,36.10
2023-02-11T09:30:27.289Z,39.38
2023-02-11T09:32:54.823Z,29.25
2023-02-11T09:35:22.367Z,31.67
2023-02-11T09:37:49.947Z,33.20
2023-02-11T09:40:18.398Z,31.17
2023-02-11T09:42:49.250Z,36.72
2023-02-11T09:45:24.575Z,30.23
2023-02-11T09:48:30.806Z,32.67
2023-02-11T09:51:03.594Z,38.78
2023-02-11T09:53:42.305Z,40.78
2023-02-11T09:56:13.022Z,35.08
2023-02-11T09:58:43.379Z,38.33
2023-02-11T10:01:19.956Z,32.95
2023-02-11T10:04:13.211Z,32.33
2023-02-11T10:06:55.092Z,35.08
2023-02-11T10:09:33.656Z,36.80
2023-02-11T10:12:16.472Z,37.35
2023-02-11T10:15:13.980Z,39.92
2023-02-11T10:18:23.083Z,41.97
2023-02-11T10:21:15.087Z,41.58
2023-02-11T10:23:47.255Z,43.42
2023-02-11T10:26:19.914Z,43.28
2023-02-11T10:28:51.225Z,38.65
2023-02-11T10:31:25.150Z,43.13
2023-02-11T10:34:12.942Z,36.97
2023-02-11T10:36:43.409Z,41.88
2023-02-11T10:39:21.852Z,37.03
2023-02-11T10:41:54.592Z,39.15
2023-02-11T10:44:28.352Z,44.40
2023-02-11T10:46:57.667Z,39.67
2023-02-11T10:49:46.164Z,42.45
2023-02-11T10:52:17.958Z,42.22
2023-02-11T10:55:17.824Z,43.65
2023-02-11T10:57:57.968Z,41.85
2023-02-11T11:00:43.807Z,48.70
2023-02-11T11:03:23.826Z,39.33
2023-02-11T11:05:57.322Z,43.35
2023-02-11T11:08:47.208Z,44.15
2023-02-11T11:11:16.471Z,40.30
2023-02-11T11:13:53.089Z,37.47
2023-02-11T11:16:23.617Z,40.15
2023-02-11T11:19:21.466Z,37.80
2023-02-11T11:24:33.573Z,39.28
2023-02-11T11:27:04.295Z,39.67
2023-02-11T11:30:03.319Z,47.25
2023-02-11T11:32:33.682Z,37.20
2023-02-11T11:37:35.000Z,38.90
2023-02-11T11:40:22.067Z,32.90
2023-02-11T11:43:23.424Z,34.03
2023-02-11T11:46:01.247Z,30.00
2023-02-11T11:48:30.753Z,31.92
2023-02-11T11:51:11.800Z,34.08
2023-02-11T11:53:43.950Z,36.72
2023-02-11T11:56:21.944Z,34.78
2023-02-11T12:01:42.265Z,37.92
2023-02-11T12:04:25.257Z,43.85
2023-02-11T12:07:16.567Z,41.72
2023-02-11T12:10:02.783Z,44.72
2023-02-11T12:12:46.905Z,44.92
2023-02-11T12:15:26.501Z,38.25
2023-02-11T12:18:15.424Z,38.05
2023-02-11T12:20:49.286Z,39.67
2023-02-11T12:23:32.276Z,40.22
2023-02-11T12:28:58.022Z,45.22
2023-02-11T12:31:37.695Z,49.55
2023-02-11T12:34:14.329Z,49.45
2023-02-11T12:37:16.105Z,50.17
2023-02-11T12:40:03.692Z,49.83
2023-02-11T12:43:16.684Z,47.92
2023-02-11T12:46:19.330Z,48.15
2023-02-11T12:49:20.586Z,48.17
2023-02-11T12:52:10.969Z,52.93
2023-02-11T12:54:58.589Z,52.78
2023-02-11T12:57:29.188Z,49.57
2023-02-11T13:00:04.999Z,47.78
2023-02-11T13:02:49.464Z,51.90
2023-02-11T13:05:23.340Z,51.83
2023-02-11T13:07:53.510Z,46.70
2023-02-11T13:10:37.746Z,46.28
2023-02-11T13:13:19.909Z,48.60
2023-02-11T13:15:53.297Z,47.25
2023-02-11T13:18:39.161Z,49.75
2023-02-11T13:21:15.854Z,45.75
2023-02-11T13:26:57.416Z,46.33
2023-02-11T13:29:43.140Z,38.83
2023-02-11T13:32:13.424Z,44.25
2023-02-11T13:34:43.983Z,43.10
2023-02-11T13:37:26.703Z,45.53
2023-02-11T13:40:03.320Z,43.72
2023-02-11T13:42:35.310Z,51.60
2023-02-11T13:45:03.634Z,40.35
2023-02-11T13:47:35.225Z,43.80
2023-02-11T13:50:06.310Z,43.97
2023-02-11T13:52:39.172Z,39.83
2023-02-11T13:55:23.007Z,41.70
2023-02-11T13:58:05.866Z,39.92
2023-02-11T14:00:36.697Z,43.42
2023-02-11T14:03:31.817Z,43.45
2023-02-11T14:06:27.041Z,40.72
2023-02-11T14:09:10.421Z,38.70
2023-02-11T14:11:43.696Z,40.08
2023-02-11T14:14:21.743Z,35.22
2023-02-11T14:17:09.659Z,43.30
2023-02-11T14:19:38.481Z,37.47
2023-02-11T14:22:17.129Z,35.60
2023-02-11T14:25:00.956Z,31.48
2023-02-11T14:27:33.713Z,36.05
2023-02-11T14:30:19.188Z,36.88
2023-02-11T14:33:04.842Z,34.22
2023-02-11T14:36:00.328Z,37.45
2023-02-11T14:38:55.898Z,38.13
2023-02-11T14:41:26.528Z,36.90
2023-02-11T14:43:58.615Z,37.25
2023-02-11T14:46:30.268Z,35.10
2023-02-11T14:49:01.447Z,32.40
2023-02-11T14:51:36.494Z,38.60
2023-02-11T14:54:18.023Z,38.05
2023-02-11T14:56:46.749Z,35.72
2023-02-11T14:59:22.992Z,34.83
2023-02-11T15:01:54.802Z,53.65
2023-02-11T15:04:32.123Z,38.00
2023-02-11T15:07:05.814Z,56.33
2023-02-11T15:09:33.248Z,46.78
2023-02-11T15:12:01.275Z,55.30
2023-02-11T15:14:33.028Z,35.92
2023-02-11T15:17:07.468Z,41.58
2023-02-11T15:19:48.379Z,34.75
2023-02-11T15:22:22.512Z,40.42
2023-02-11T15:25:01.431Z,35.40
2023-02-11T15:27:38.542Z,39.80
2023-02-11T15:30:25.439Z,33.53
2023-02-11T15:33:00.127Z,31.25
2023-02-11T15:35:37.171Z,33.83
2023-02-11T15:38:05.507Z,34.92
2023-02-11T15:40:36.482Z,31.95
2023-02-11T15:43:07.182Z,37.03
2023-02-11T15:46:01.765Z,34.50
2023-02-11T15:48:48.240Z,39.13
2023-02-11T15:51:18.906Z,35.73
2023-02-11T15:53:53.179Z,37.78
2023-02-11T15:56:29.841Z,40.28
2023-02-11T15:59:00.803Z,43.42
2023-02-11T16:01:33.624Z,42.80
2023-02-11T16:04:02.972Z,40.88
2023-02-11T16:06:42.198Z,40.90
2023-02-11T16:09:11.033Z,41.97
2023-02-11T16:11:47.673Z,45.35
2023-02-11T16:16:53.295Z,43.45
2023-02-11T16:19:25.216Z,43.17
2023-02-11T16:21:55.697Z,41.95
2023-02-11T16:24:30.139Z,42.17
2023-02-11T16:27:03.964Z,46.03
2023-02-11T16:29:35.275Z,44.80
2023-02-11T16:32:08.265Z,43.45
2023-02-11T16:34:36.805Z,45.05
2023-02-11T16:37:05.561Z,47.78
2023-02-11T16:39:33.554Z,47.92
2023-02-11T16:42:01.895Z,47.10
2023-02-11T16:44:29.939Z,45.78
2023-02-11T16:47:00.089Z,48.72
2023-02-11T16:49:31.348Z,46.38
2023-02-11T16:52:01.421Z,45.03
2023-02-11T16:54:29.681Z,46.30
2023-02-11T16:56:57.692Z,48.22
2023-02-11T16:59:25.642Z,64.07
2023-02-11T17:01:55.011Z,71.45
2023-02-11T17:04:28.555Z,80.07
2023-02-11T17:06:58.391Z,86.25
2023-02-11T17:09:30.644Z,89.50
2023-02-11T17:11:59.001Z,80.75
2023-02-11T17:14:26.534Z,83.07
2023-02-11T17:16:54.173Z,70.13
2023-02-11T17:19:21.853Z,76.00
2023-02-11T17:21:52.514Z,77.20
2023-02-11T17:26:48.427Z,70.15
2023-02-11T17:29:22.096Z,66.38
2023-02-11T17:31:52.507Z,69.00
2023-02-11T17:34:21.976Z,75.03
2023-02-11T17:36:50.273Z,74.88
2023-02-11T17:39:19.666Z,66.57
2023-02-11T17:41:47.846Z,65.40
2023-02-11T17:46:44.444Z,69.15
2023-02-11T17:49:12.720Z,71.18
2023-02-11T17:51:41.181Z,63.72
2023-02-11T17:54:12.705Z,65.32
2023-02-11T17:56:41.506Z,63.60
2023-02-11T17:59:11.114Z,61.83
2023-02-11T18:01:40.634Z,66.97
2023-02-11T18:04:12.524Z,63.20
2023-02-11T18:06:40.659Z,63.47
2023-02-11T18:09:08.249Z,58.80
2023-02-11T18:11:37.999Z,59.92
2023-02-11T18:14:08.021Z,63.38
2023-02-11T18:16:38.953Z,72.15
2023-02-11T18:19:07.774Z,65.57
2023-02-11T18:21:35.836Z,67.63
2023-02-11T18:24:06.842Z,65.72
2023-02-11T18:26:35.724Z,80.18
2023-02-11T18:29:05.396Z,88.13
2023-02-11T18:31:35.377Z,71.25
2023-02-11T18:34:06.065Z,72.35
2023-02-11T18:36:34.671Z,66.13
2023-02-11T18:39:02.549Z,73.50
2023-02-11T18:41:30.136Z,70.63
2023-02-11T18:43:58.703Z,74.68
2023-02-11T18:46:26.338Z,72.05
2023-02-11T18:51:24.460Z,70.25
2023-02-11T18:53:52.381Z,62.83
2023-02-11T18:56:23.140Z,68.05
2023-02-11T18:58:52.148Z,63.53
2023-02-11T19:01:24.561Z,84.03
2023-02-11T19:03:53.309Z,117.10
2023-02-11T19:06:25.579Z,78.35
2023-02-11T19:08:57.479Z,68.10
2023-02-11T19:11:46.435Z,53.25
2023-02-11T19:16:44.133Z,55.60
2023-02-11T19:19:11.992Z,52.03
2023-02-11T19:21:42.649Z,53.58
2023-02-11T19:24:11.520Z,50.67
2023-02-11T19:26:38.998Z,51.83
2023-02-11T19:29:06.957Z,52.90
2023-02-11T19:31:35.371Z,49.78
2023-02-11T19:34:04.015Z,55.30
2023-02-11T19:36:31.839Z,55.45
2023-02-11T19:39:04.766Z,53.53
2023-02-11T19:41:33.677Z,55.42
2023-02-11T19:44:01.636Z,54.47
2023-02-11T19:46:32.522Z,51.08
2023-02-11T19:49:01.185Z,57.25
2023-02-11T19:51:29.361Z,59.47
2023-02-11T19:53:58.397Z,58.30
2023-02-11T19:56:28.557Z,60.65
2023-02-11T19:58:56.070Z,59.65
2023-02-11T20:01:24.805Z,70.05
2023-02-11T20:03:53.944Z,57.20
2023-02-11T20:06:24.769Z,66.22
2023-02-11T20:09:01.234Z,63.80
2023-02-11T20:11:31.496Z,66.25
2023-02-11T20:13:59.660Z,71.35
2023-02-11T20:16:46.297Z,72.22
2023-02-11T20:19:18.481Z,73.82
2023-02-11T20:21:49.171Z,78.45
2023-02-11T20:24:18.322Z,83.43
2023-02-11T20:26:48.494Z,82.90
2023-02-11T20:29:19.011Z,88.95
2023-02-11T20:31:50.110Z,83.80
2023-02-11T20:34:18.920Z,79.68
2023-02-11T20:36:52.315Z,76.22
2023-02-11T20:39:22.665Z,84.80
2023-02-11T20:41:51.288Z,90.45
2023-02-11T20:51:43.404Z,79.80
2023-02-11T20:54:13.350Z,75.90
2023-02-11T20:56:41.095Z,79.05
2023-02-11T20:59:09.300Z,81.40
2023-02-11T21:01:43.869Z,81.78
2023-02-11T21:04:17.771Z,81.15
2023-02-11T21:06:47.622Z,71.80
2023-02-11T21:09:19.969Z,80.15
2023-02-11T21:11:48.948Z,80.38
2023-02-11T21:14:16.355Z,77.72
2023-02-11T21:16:44.091Z,77.55
2023-02-11T21:19:12.191Z,76.97
2023-02-11T21:21:40.183Z,68.28
2023-02-11T21:24:09.508Z,71.75
2023-02-11T21:26:38.008Z,77.20
2023-02-11T21:29:07.326Z,73.70
2023-02-11T21:31:36.330Z,67.43
2023-02-11T21:34:05.462Z,69.30
2023-02-11T21:36:33.319Z,70.07
2023-02-11T21:39:01.964Z,73.18
2023-02-11T21:41:29.903Z,78.03
2023-02-11T21:43:57.389Z,79.18
2023-02-11T21:46:25.049Z,73.20
2023-02-11T21:48:52.872Z,69.75
2023-02-11T21:53:57.057Z,72.22
2023-02-11T21:56:28.997Z,71.03
2023-02-11T21:58:59.899Z,72.10
2023-02-11T22:01:30.111Z,74.88
2023-02-11T22:04:02.058Z,77.57
2023-02-11T22:06:33.135Z,79.35
2023-02-11T22:09:08.612Z,82.60
2023-02-11T22:11:37.772Z,88.80
2023-02-11T22:14:05.524Z,76.80
2023-02-11T22:16:34.391Z,81.78
2023-02-11T22:19:03.172Z,78.50
2023-02-11T22:21:30.735Z,79.75
2023-02-11T22:23:59.153Z,72.65
2023-02-11T22:26:28.069Z,74.03
2023-02-11T22:28:57.951Z,85.13
2023-02-11T22:31:29.956Z,73.68
2023-02-11T22:34:00.770Z,74.05
2023-02-11T22:36:37.720Z,74.78
2023-02-11T22:39:08.782Z,66.57
2023-02-11T22:41:38.705Z,73.22
2023-02-11T22:44:06.914Z,79.47
2023-02-11T22:46:34.509Z,72.32
2023-02-11T22:49:02.017Z,72.43
2023-02-11T22:51:30.875Z,68.30
2023-02-11T22:54:02.065Z,72.43
2023-02-11T22:56:32.059Z,66.60
2023-02-11T22:59:01.586Z,69.97
2023-02-11T23:04:00.133Z,61.45
2023-02-11T23:06:27.909Z,68.93
2023-02-11T23:08:56.341Z,62.92
2023-02-11T23:11:26.449Z,63.25
2023-02-11T23:13:54.651Z,71.60
2023-02-11T23:16:27.737Z,82.47
2023-02-11T23:18:55.486Z,73.55
2023-02-11T23:21:27.228Z,70.63
2023-02-11T23:24:06.319Z,63.17
2023-02-11T23:26:34.464Z,60.78
2023-02-11T23:29:02.121Z,67.30
2023-02-11T23:31:38.064Z,68.28
2023-02-11T23:34:08.347Z,66.10
2023-02-11T23:36:37.739Z,74.13
2023-02-11T23:39:06.445Z,66.88
2023-02-11T23:41:34.180Z,76.90
2023-02-11T23:44:01.771Z,70.97
2023-02-11T23:46:30.441Z,69.88
2023-02-11T23:48:58.111Z,72.97
2023-02-11T23:51:25.868Z,70.40
2023-02-11T23:53:56.103Z,72.82
2023-02-11T23:56:26.879Z,69.88
2023-02-11T23:58:56.844Z,69.78
